Time;durP1;ratioP1;P1;durP2;ratioP2;P2;SDS_P1;SDS_P2;PMS_P1;PMS_P2;Temp;Humidity;BMP_temperature;BMP_pressure;BME280_temperature;BME280_humidity;BME280_pressure;Samples;Min_cycle;Max_cycle;Signal;HPM_P1;HPM_P2
2024/01/27 00:02:01;;;;;;;17.00;5.40;;;5.10;69.50;;;;;;6213250;28;20743;-81
2024/01/27 00:05:05;;;;;;;16.40;5.53;;;5.10;69.60;;;;;;6216893;28;20737;-82
2024/01/27 00:08:09;;;;;;;22.67;5.90;;;5.10;69.50;;;;;;6214209;28;20257;-82
2024/01/27 00:11:13;;;;;;;17.30;5.50;;;5.00;69.50;;;;;;6219073;28;20723;-83
2024/01/27 00:14:16;;;;;;;13.00;5.57;;;5.10;69.10;;;;;;6217456;28;20239;-81
2024/01/27 00:17:23;;;;;;;11.07;5.43;;;5.10;69.20;;;;;;6214992;28;20234;-83
2024/01/27 00:20:27;;;;;;;13.00;5.37;;;5.00;69.20;;;;;;6208407;28;20231;-84
2024/01/27 00:23:32;;;;;;;16.93;5.60;;;5.00;69.30;;;;;;6227946;28;20246;-82
2024/01/27 00:26:35;;;;;;;21.40;6.90;;;5.00;69.20;;;;;;6211045;28;20245;-82
2024/01/27 00:29:38;;;;;;;13.87;5.60;;;5.00;69.00;;;;;;6217853;28;20251;-82
2024/01/27 00:32:41;;;;;;;19.67;6.63;;;5.00;68.90;;;;;;6216669;28;20873;-82
2024/01/27 00:35:45;;;;;;;17.30;5.57;;;4.90;69.20;;;;;;6214785;28;20239;-83
2024/01/27 00:38:50;;;;;;;16.43;5.77;;;4.90;69.00;;;;;;6184819;28;20235;-83
2024/01/27 00:41:55;;;;;;;14.83;5.10;;;4.80;69.10;;;;;;6213183;28;20223;-85
2024/01/27 00:44:58;;;;;;;13.07;5.93;;;4.90;69.00;;;;;;6221241;28;20611;-81
2024/01/27 00:48:02;;;;;;;18.33;5.47;;;4.90;68.70;;;;;;6219582;28;20975;-82
2024/01/27 00:51:05;;;;;;;16.33;5.80;;;5.00;68.50;;;;;;6233161;28;20238;-81
2024/01/27 00:54:10;;;;;;;21.20;5.37;;;4.90;68.40;;;;;;6242414;28;20369;-82
2024/01/27 00:57:13;;;;;;;12.70;5.00;;;5.00;68.20;;;;;;6241757;28;20243;-83
2024/01/27 01:00:17;;;;;;;10.77;5.33;;;5.00;68.40;;;;;;6241769;28;20411;-80
2024/01/27 01:03:21;;;;;;;17.57;5.30;;;5.00;67.80;;;;;;6242077;28;20638;-82
2024/01/27 01:06:24;;;;;;;18.17;6.50;;;5.00;67.70;;;;;;6241743;28;20245;-82
2024/01/27 01:09:32;;;;;;;19.57;5.40;;;5.00;67.80;;;;;;6239839;28;20235;-82
2024/01/27 01:12:35;;;;;;;11.57;5.37;;;5.00;67.40;;;;;;6240697;28;20287;-83
2024/01/27 01:15:39;;;;;;;12.20;5.33;;;5.00;67.70;;;;;;6240105;28;20246;-81
2024/01/27 01:18:42;;;;;;;15.83;6.20;;;4.90;68.00;;;;;;6241477;28;20235;-81
2024/01/27 01:21:46;;;;;;;16.37;5.90;;;4.90;68.00;;;;;;6243971;28;20238;-82
2024/01/27 01:24:50;;;;;;;13.67;5.20;;;4.90;67.80;;;;;;6245268;28;20412;-83
2024/01/27 01:27:53;;;;;;;19.37;5.77;;;4.90;67.70;;;;;;6241473;28;20234;-82
2024/01/27 01:30:57;;;;;;;13.27;5.20;;;4.90;67.90;;;;;;6221097;28;20227;-81
2024/01/27 01:34:00;;;;;;;18.63;5.40;;;4.90;67.80;;;;;;6215870;28;20239;-84
2024/01/27 01:37:03;;;;;;;15.27;5.70;;;4.90;67.60;;;;;;6203014;28;20231;-83
2024/01/27 01:40:10;;;;;;;16.63;6.63;;;4.90;67.40;;;;;;6219944;28;20235;-83
2024/01/27 01:43:13;;;;;;;14.27;5.10;;;4.80;67.80;;;;;;6240725;28;20238;-83
2024/01/27 01:46:16;;;;;;;14.67;5.90;;;4.90;67.60;;;;;;6237859;28;20365;-83
2024/01/27 01:49:20;;;;;;;18.27;6.30;;;4.80;67.80;;;;;;6239306;28;20288;-82
2024/01/27 01:52:23;;;;;;;13.93;5.67;;;4.80;68.00;;;;;;6240308;28;20992;-81
2024/01/27 01:55:28;;;;;;;9.00;5.23;;;4.80;68.20;;;;;;6229498;28;20249;-82
2024/01/27 01:58:34;;;;;;;15.63;5.90;;;4.90;68.00;;;;;;6241714;28;20289;-81
2024/01/27 02:01:37;;;;;;;16.83;5.53;;;4.80;68.00;;;;;;6232891;28;20293;-81
2024/01/27 02:04:41;;;;;;;14.53;6.10;;;4.70;68.30;;;;;;6241028;28;20251;-81
2024/01/27 02:07:47;;;;;;;9.10;5.67;;;4.70;68.40;;;;;;6233614;28;20238;-80
2024/01/27 02:10:52;;;;;;;13.97;5.17;;;4.70;68.60;;;;;;6236814;28;20239;-83
2024/01/27 02:13:56;;;;;;;31.97;7.90;;;4.70;68.60;;;;;;6240325;28;20238;-82
2024/01/27 02:16:59;;;;;;;18.87;6.83;;;4.90;68.50;;;;;;6203595;28;20279;-82
2024/01/27 02:20:03;;;;;;;23.50;6.80;;;4.80;68.90;;;;;;6240234;28;20277;-82
2024/01/27 02:23:06;;;;;;;17.80;6.20;;;4.90;68.80;;;;;;6239446;28;20227;-83
2024/01/27 02:26:11;;;;;;;19.60;6.20;;;4.80;68.90;;;;;;6232726;28;20246;-82
2024/01/27 02:29:14;;;;;;;22.07;5.87;;;4.80;69.10;;;;;;6243802;28;20231;-82
2024/01/27 02:32:17;;;;;;;18.57;6.27;;;4.90;69.10;;;;;;6240743;28;20239;-83
2024/01/27 02:35:21;;;;;;;20.63;6.37;;;4.90;69.10;;;;;;6241417;28;20242;-82
2024/01/27 02:38:24;;;;;;;13.77;6.03;;;4.90;69.30;;;;;;6241893;28;20239;-83
2024/01/27 02:41:28;;;;;;;13.50;5.83;;;4.90;69.10;;;;;;6236734;28;20237;-82
2024/01/27 02:44:32;;;;;;;24.00;6.53;;;5.00;69.00;;;;;;6244311;28;20272;-82
2024/01/27 02:47:35;;;;;;;21.17;5.73;;;4.90;69.40;;;;;;6241407;28;20246;-83
2024/01/27 02:50:39;;;;;;;19.30;5.90;;;5.00;69.20;;;;;;6230652;28;20231;-82
2024/01/27 02:53:52;;;;;;;15.73;5.83;;;4.90;69.40;;;;;;6241827;28;20239;-82
2024/01/27 02:56:56;;;;;;;17.00;5.47;;;4.90;69.70;;;;;;6242235;28;20397;-83
2024/01/27 03:00:00;;;;;;;12.53;6.00;;;4.80;69.80;;;;;;6242283;28;21440;-83
2024/01/27 03:03:03;;;;;;;19.73;6.33;;;4.70;70.00;;;;;;6251882;28;20238;-84
2024/01/27 03:06:06;;;;;;;20.07;6.30;;;4.80;69.60;;;;;;6238924;28;20243;-83
2024/01/27 03:09:10;;;;;;;21.77;5.97;;;4.80;69.60;;;;;;6241467;28;20230;-85
2024/01/27 03:12:16;;;;;;;22.17;5.47;;;4.80;69.60;;;;;;6232814;28;20238;-82
2024/01/27 03:15:19;;;;;;;15.97;5.40;;;4.70;69.70;;;;;;6236660;28;20297;-81
2024/01/27 03:18:24;;;;;;;10.43;5.17;;;4.70;69.60;;;;;;6236153;28;20936;-83
2024/01/27 03:21:28;;;;;;;15.03;5.83;;;4.70;69.70;;;;;;6234868;28;20677;-83
2024/01/27 03:24:31;;;;;;;11.47;4.90;;;4.70;69.70;;;;;;6236691;28;20249;-83
2024/01/27 03:27:35;;;;;;;12.40;5.70;;;4.70;69.80;;;;;;6234633;28;20260;-83
2024/01/27 03:30:39;;;;;;;21.60;6.13;;;4.60;70.10;;;;;;6231459;28;20240;-83
2024/01/27 03:33:42;;;;;;;16.67;5.43;;;4.50;70.00;;;;;;6234769;28;20328;-83
2024/01/27 03:36:49;;;;;;;16.47;6.03;;;4.50;70.30;;;;;;6232133;28;20716;-81
2024/01/27 03:39:52;;;;;;;15.77;5.77;;;4.50;70.30;;;;;;6232230;28;20242;-83
2024/01/27 03:42:57;;;;;;;11.00;5.47;;;4.30;70.80;;;;;;6233098;28;20320;-83
2024/01/27 03:46:00;;;;;;;12.10;6.23;;;4.30;70.80;;;;;;6201749;28;20247;-82
2024/01/27 03:49:03;;;;;;;11.80;5.67;;;4.30;71.10;;;;;;6200387;28;20244;-82
2024/01/27 03:52:07;;;;;;;19.17;6.47;;;4.30;71.00;;;;;;6209671;28;20227;-82
2024/01/27 03:55:10;;;;;;;13.33;5.07;;;4.20;71.20;;;;;;6203173;28;20246;-81
2024/01/27 03:58:15;;;;;;;14.63;5.40;;;4.20;71.20;;;;;;6205002;28;20231;-82
2024/01/27 04:01:18;;;;;;;16.67;5.30;;;4.20;71.30;;;;;;6204267;28;20231;-81
2024/01/27 04:04:21;;;;;;;13.67;6.53;;;4.20;71.40;;;;;;6203405;28;20277;-82
2024/01/27 04:07:25;;;;;;;11.47;5.30;;;4.20;71.50;;;;;;6205895;28;20307;-82
2024/01/27 04:10:29;;;;;;;14.23;5.70;;;4.10;71.60;;;;;;6217773;28;20250;-82
2024/01/27 04:13:34;;;;;;;23.33;6.60;;;4.10;71.90;;;;;;6221137;28;20231;-82
2024/01/27 04:16:38;;;;;;;13.63;5.53;;;4.10;72.00;;;;;;6207281;28;20275;-83
2024/01/27 04:19:41;;;;;;;17.47;5.97;;;4.00;72.20;;;;;;6210959;28;20251;-81
2024/01/27 04:22:44;;;;;;;17.43;6.40;;;4.00;72.30;;;;;;6213651;28;20261;-83
2024/01/27 04:25:47;;;;;;;17.07;5.90;;;4.00;72.60;;;;;;6214745;28;20251;-82
2024/01/27 04:28:52;;;;;;;16.00;5.63;;;4.00;72.60;;;;;;6205061;28;20318;-82
2024/01/27 04:31:55;;;;;;;14.87;5.90;;;4.00;72.80;;;;;;6195585;28;20270;-83
2024/01/27 04:34:58;;;;;;;22.10;6.10;;;3.90;72.90;;;;;;6214005;28;20247;-81
2024/01/27 04:38:02;;;;;;;11.20;5.40;;;3.90;73.20;;;;;;6213901;28;20239;-82
2024/01/27 04:41:06;;;;;;;18.93;5.80;;;3.90;73.20;;;;;;6228826;28;20239;-81
2024/01/27 04:44:11;;;;;;;11.07;6.13;;;3.90;73.50;;;;;;6232696;28;20311;-83
2024/01/27 04:47:14;;;;;;;18.50;5.90;;;3.90;73.50;;;;;;6235614;28;20235;-83
2024/01/27 04:50:18;;;;;;;17.97;5.47;;;3.90;73.50;;;;;;6236142;28;20238;-82
2024/01/27 04:53:21;;;;;;;19.67;6.13;;;4.00;73.50;;;;;;6248924;28;20230;-84
2024/01/27 04:56:24;;;;;;;13.03;5.27;;;4.00;73.60;;;;;;6255757;28;20368;-84
2024/01/27 04:59:29;;;;;;;15.47;6.30;;;4.10;73.40;;;;;;6253690;28;20330;-84
2024/01/27 05:02:32;;;;;;;16.27;6.40;;;4.10;73.30;;;;;;6249818;28;20758;-83
2024/01/27 05:05:35;;;;;;;19.57;6.30;;;4.20;73.00;;;;;;6255717;28;20262;-79
2024/01/27 05:08:39;;;;;;;15.83;5.67;;;4.30;72.90;;;;;;6239353;28;20231;-77
2024/01/27 05:11:42;;;;;;;18.70;5.90;;;4.30;73.00;;;;;;6239933;28;20298;-76
2024/01/27 05:14:47;;;;;;;17.90;6.10;;;4.30;73.00;;;;;;6251929;28;20234;-82
2024/01/27 05:17:52;;;;;;;16.90;6.40;;;4.30;73.00;;;;;;6252889;28;20270;-80
2024/01/27 05:20:55;;;;;;;18.23;6.20;;;4.40;72.80;;;;;;6242620;28;20377;-83
2024/01/27 05:23:58;;;;;;;17.77;5.53;;;4.30;73.00;;;;;;6244553;28;20235;-80
2024/01/27 05:27:02;;;;;;;19.50;6.13;;;4.30;73.20;;;;;;6241094;28;20316;-81
2024/01/27 05:30:08;;;;;;;16.73;6.43;;;4.20;73.40;;;;;;6228913;28;20230;-80
2024/01/27 05:33:12;;;;;;;18.87;6.53;;;4.20;73.40;;;;;;6249392;28;21060;-80
2024/01/27 05:36:15;;;;;;;19.13;5.87;;;4.20;73.50;;;;;;6243794;28;20235;-80
2024/01/27 05:39:19;;;;;;;17.87;7.10;;;4.20;73.40;;;;;;6241471;28;20236;-80
2024/01/27 05:42:22;;;;;;;16.40;5.60;;;4.20;73.50;;;;;;6236183;28;20235;-79
2024/01/27 05:45:28;;;;;;;19.27;5.87;;;4.20;73.40;;;;;;6237315;28;20873;-82
2024/01/27 05:48:33;;;;;;;22.00;6.07;;;4.20;73.50;;;;;;6239056;28;20262;-82
2024/01/27 05:51:36;;;;;;;19.67;6.57;;;4.30;73.30;;;;;;6238403;28;20341;-82
2024/01/27 05:54:41;;;;;;;20.00;5.87;;;4.30;73.20;;;;;;6241750;28;20227;-83
2024/01/27 05:57:45;;;;;;;24.80;7.67;;;4.30;73.10;;;;;;6237154;28;20257;-82
2024/01/27 06:00:50;;;;;;;18.03;6.60;;;4.30;73.10;;;;;;6241253;28;20226;-81
2024/01/27 06:03:53;;;;;;;20.37;6.57;;;4.30;73.20;;;;;;6238648;28;20254;-83
2024/01/27 06:06:57;;;;;;;13.77;5.90;;;4.40;73.20;;;;;;6235668;28;20325;-82
2024/01/27 06:10:00;;;;;;;20.70;6.50;;;4.40;73.30;;;;;;6236337;28;20234;-83
2024/01/27 06:13:03;;;;;;;18.93;6.00;;;4.40;73.20;;;;;;6223869;28;20690;-81
2024/01/27 06:16:09;;;;;;;21.63;6.90;;;4.50;73.00;;;;;;6249007;28;20238;-82
2024/01/27 06:19:13;;;;;;;17.83;5.77;;;4.50;72.80;;;;;;6208351;28;20237;-82
2024/01/27 06:22:16;;;;;;;12.60;5.40;;;4.60;72.80;;;;;;6247608;28;20734;-81
2024/01/27 06:25:19;;;;;;;15.00;5.30;;;4.50;72.80;;;;;;6242612;28;20241;-80
2024/01/27 06:28:23;;;;;;;19.60;6.00;;;4.50;72.80;;;;;;6242083;28;20248;-82
2024/01/27 06:31:27;;;;;;;15.07;5.40;;;4.70;72.60;;;;;;6239374;28;20270;-81
2024/01/27 06:34:30;;;;;;;13.13;5.10;;;4.70;72.70;;;;;;6244373;28;20781;-81
2024/01/27 06:37:34;;;;;;;21.43;6.50;;;4.70;72.80;;;;;;6242355;28;20231;-79
2024/01/27 06:40:38;;;;;;;16.63;6.07;;;4.70;72.80;;;;;;6241199;28;20276;-81
2024/01/27 06:43:41;;;;;;;17.80;5.90;;;4.70;73.10;;;;;;6239534;28;20266;-81
2024/01/27 06:46:49;;;;;;;14.47;5.50;;;4.70;73.00;;;;;;6240531;28;20308;-81
2024/01/27 06:49:52;;;;;;;19.97;6.03;;;4.70;73.00;;;;;;6237965;28;20270;-80
2024/01/27 06:52:56;;;;;;;15.80;5.93;;;4.70;73.10;;;;;;6233259;28;20637;-81
2024/01/27 06:55:59;;;;;;;20.73;6.30;;;4.70;73.30;;;;;;6242167;28;20243;-81
2024/01/27 06:59:02;;;;;;;25.33;6.00;;;4.70;73.20;;;;;;6224427;28;20313;-82
2024/01/27 07:02:07;;;;;;;19.17;6.33;;;4.70;73.20;;;;;;6237116;28;20917;-80
2024/01/27 07:05:11;;;;;;;16.20;5.70;;;4.70;73.00;;;;;;6238966;28;20242;-81
2024/01/27 07:08:14;;;;;;;12.67;5.20;;;4.80;72.90;;;;;;6232243;28;20265;-81
2024/01/27 07:11:18;;;;;;;14.57;5.73;;;4.80;72.80;;;;;;6237189;28;20699;-81
2024/01/27 07:14:21;;;;;;;17.17;5.40;;;4.80;72.70;;;;;;6235179;28;20251;-82
2024/01/27 07:17:25;;;;;;;11.30;5.67;;;4.80;73.10;;;;;;6228165;28;20246;-82
2024/01/27 07:20:29;;;;;;;19.80;6.93;;;4.80;72.90;;;;;;6232927;28;20227;-77
2024/01/27 07:23:32;;;;;;;19.20;6.33;;;4.70;73.20;;;;;;6186630;28;20223;-80
2024/01/27 07:26:35;;;;;;;18.47;6.23;;;4.80;73.10;;;;;;6211841;28;20239;-79
2024/01/27 07:29:38;;;;;;;14.17;5.90;;;4.80;73.10;;;;;;6227321;28;20242;-82
2024/01/27 07:32:44;;;;;;;16.97;5.77;;;4.80;73.10;;;;;;6217457;28;20599;-82
2024/01/27 07:35:47;;;;;;;15.63;5.57;;;4.80;73.20;;;;;;6211871;28;20244;-80
2024/01/27 07:38:50;;;;;;;19.00;6.20;;;4.80;73.40;;;;;;6202796;28;20910;-81
2024/01/27 07:41:53;;;;;;;12.90;5.70;;;4.90;73.10;;;;;;6215543;28;20231;-81
2024/01/27 07:44:57;;;;;;;15.57;5.80;;;4.90;73.00;;;;;;6211997;28;20246;-82
2024/01/27 07:48:01;;;;;;;18.43;6.10;;;4.90;73.10;;;;;;6225765;28;20637;-78
2024/01/27 07:51:05;;;;;;;17.90;6.13;;;4.90;73.10;;;;;;6219333;28;20425;-79
2024/01/27 07:54:08;;;;;;;23.03;6.33;;;5.00;72.90;;;;;;6213552;28;20235;-80
2024/01/27 07:57:12;;;;;;;15.57;5.40;;;5.00;72.90;;;;;;6222248;28;20236;-79
2024/01/27 08:00:16;;;;;;;15.97;6.63;;;5.00;72.80;;;;;;6241694;28;20238;-82
2024/01/27 08:03:21;;;;;;;12.60;5.87;;;5.10;72.70;;;;;;6234207;28;20238;-82
2024/01/27 08:06:30;;;;;;;16.83;5.47;;;5.00;72.60;;;;;;6249297;28;20974;-81
2024/01/27 08:09:33;;;;;;;14.63;6.07;;;5.10;72.40;;;;;;6233791;28;20253;-81
2024/01/27 08:12:38;;;;;;;16.47;5.90;;;5.10;72.40;;;;;;6234370;28;20283;-81
2024/01/27 08:15:41;;;;;;;24.10;5.50;;;5.20;72.20;;;;;;6255479;28;20249;-81
2024/01/27 08:18:46;;;;;;;16.03;6.20;;;5.30;72.20;;;;;;6266233;28;20230;-79
2024/01/27 08:21:49;;;;;;;12.93;6.00;;;5.30;71.90;;;;;;6249715;28;20227;-81
2024/01/27 08:24:53;;;;;;;16.57;5.70;;;5.30;71.90;;;;;;6227904;28;20423;-79
2024/01/27 08:27:56;;;;;;;17.20;6.23;;;5.30;72.00;;;;;;6226238;28;20544;-80
2024/01/27 08:31:01;;;;;;;22.27;6.07;;;5.30;72.20;;;;;;6222746;28;20297;-80
2024/01/27 08:34:06;;;;;;;17.03;5.40;;;5.30;71.90;;;;;;6230812;28;20311;-78
2024/01/27 08:37:16;;;;;;;14.43;5.37;;;5.30;71.80;;;;;;6226247;28;20469;-80
2024/01/27 08:40:20;;;;;;;11.17;5.90;;;5.40;71.80;;;;;;6225060;28;20258;-82
2024/01/27 08:43:23;;;;;;;16.03;6.10;;;5.50;71.60;;;;;;6234369;28;20238;-80
2024/01/27 08:46:26;;;;;;;10.20;5.07;;;5.50;71.60;;;;;;6227656;28;20241;-80
2024/01/27 08:49:30;;;;;;;12.67;5.70;;;5.50;71.60;;;;;;6234354;28;20239;-81
2024/01/27 08:52:34;;;;;;;19.47;5.60;;;5.50;71.30;;;;;;6252720;28;20238;-82
2024/01/27 08:55:41;;;;;;;16.07;5.80;;;5.50;71.30;;;;;;6260530;28;20222;-81
2024/01/27 08:58:44;;;;;;;17.20;6.17;;;5.50;71.20;;;;;;6268486;28;20320;-81
2024/01/27 09:01:47;;;;;;;16.10;5.93;;;5.60;71.00;;;;;;6254099;28;20269;-79
2024/01/27 09:04:52;;;;;;;14.37;5.80;;;5.60;71.00;;;;;;6250334;28;20261;-82
2024/01/27 09:07:55;;;;;;;12.67;5.20;;;5.70;71.10;;;;;;6253585;28;20239;-80
2024/01/27 09:10:59;;;;;;;21.53;7.10;;;5.70;71.10;;;;;;6237033;28;20238;-79
2024/01/27 09:14:02;;;;;;;16.43;5.60;;;5.80;70.70;;;;;;6258005;28;20274;-78
2024/01/27 09:17:05;;;;;;;14.03;5.83;;;5.80;70.50;;;;;;6254257;28;20250;-80
2024/01/27 09:20:12;;;;;;;15.00;5.53;;;5.80;70.60;;;;;;6258627;28;20226;-76
2024/01/27 09:23:16;;;;;;;9.67;5.00;;;5.90;70.50;;;;;;6253345;28;20249;-79
2024/01/27 09:26:19;;;;;;;17.13;6.27;;;5.90;70.50;;;;;;6259067;28;20247;-78
2024/01/27 09:29:22;;;;;;;22.70;6.27;;;5.90;70.40;;;;;;6253472;28;20258;-80
2024/01/27 09:32:25;;;;;;;17.47;5.87;;;6.00;70.20;;;;;;6257054;28;20242;-81
2024/01/27 09:35:30;;;;;;;19.03;5.90;;;6.10;70.10;;;;;;6246422;28;20239;-80
2024/01/27 09:38:33;;;;;;;17.20;5.57;;;6.00;70.00;;;;;;6240349;28;20877;-81
2024/01/27 09:41:36;;;;;;;18.57;6.53;;;6.10;69.90;;;;;;6238425;28;20373;-81
2024/01/27 09:44:42;;;;;;;22.33;6.10;;;6.10;69.80;;;;;;6227653;28;20239;-82
2024/01/27 09:47:48;;;;;;;17.30;5.83;;;6.10;70.00;;;;;;6238990;28;20254;-83
2024/01/27 09:50:59;;;;;;;13.20;5.67;;;6.20;69.70;;;;;;6237400;28;20651;-80
2024/01/27 09:54:04;;;;;;;15.33;5.57;;;6.20;69.30;;;;;;6235751;28;20245;-81
2024/01/27 09:57:08;;;;;;;21.80;6.20;;;6.30;69.40;;;;;;6240325;28;20245;-82
2024/01/27 10:00:16;;;;;;;16.47;6.00;;;6.30;69.00;;;;;;6243383;28;20250;-83
2024/01/27 10:03:20;;;;;;;14.20;5.93;;;6.30;69.00;;;;;;6244113;28;20258;-82
2024/01/27 10:06:25;;;;;;;9.87;5.13;;;6.30;69.40;;;;;;6237689;28;20326;-81
2024/01/27 10:09:28;;;;;;;16.00;5.80;;;6.40;68.90;;;;;;6243303;28;20289;-81
2024/01/27 10:12:32;;;;;;;12.50;5.77;;;6.40;68.60;;;;;;6234742;28;20237;-80
2024/01/27 10:15:35;;;;;;;15.97;5.70;;;6.40;68.30;;;;;;6243070;28;20231;-82
2024/01/27 10:18:38;;;;;;;14.93;5.83;;;6.50;68.20;;;;;;6235957;28;20242;-81
2024/01/27 10:21:43;;;;;;;16.93;5.87;;;6.40;68.30;;;;;;6239677;28;20227;-81
2024/01/27 10:24:47;;;;;;;9.80;5.53;;;6.40;68.30;;;;;;6246963;28;20233;-82
2024/01/27 10:27:50;;;;;;;13.07;5.67;;;6.40;68.40;;;;;;6246628;28;20233;-82
2024/01/27 10:30:54;;;;;;;16.10;5.47;;;6.50;68.20;;;;;;6242338;28;20238;-81
2024/01/27 10:33:58;;;;;;;13.97;5.80;;;6.60;68.20;;;;;;6236996;28;20230;-82
2024/01/27 10:37:03;;;;;;;19.60;6.43;;;6.60;68.00;;;;;;6232842;28;20299;-81
2024/01/27 10:40:08;;;;;;;11.00;5.40;;;6.60;68.00;;;;;;6236745;28;20322;-82
2024/01/27 10:43:11;;;;;;;20.83;6.13;;;6.70;67.60;;;;;;6236131;28;20444;-79
2024/01/27 10:46:16;;;;;;;13.93;5.27;;;6.70;67.70;;;;;;6227351;28;20254;-80
2024/01/27 10:49:19;;;;;;;15.90;5.87;;;6.70;67.90;;;;;;6243331;28;20744;-81
2024/01/27 10:52:29;;;;;;;16.37;5.20;;;6.80;68.00;;;;;;6237034;28;20246;-82
2024/01/27 10:55:35;;;;;;;12.57;5.33;;;6.80;68.00;;;;;;6211684;28;20242;-83
2024/01/27 10:58:41;;;;;;;18.40;5.53;;;6.90;67.60;;;;;;6239284;28;20923;-80
2024/01/27 11:01:46;;;;;;;19.03;5.80;;;6.90;67.70;;;;;;6233688;28;20896;-82
2024/01/27 11:04:50;;;;;;;9.93;6.17;;;7.00;67.60;;;;;;6237547;28;20270;-80
2024/01/27 11:07:56;;;;;;;18.53;5.60;;;7.00;67.90;;;;;;6233370;28;20287;-80
2024/01/27 11:11:00;;;;;;;17.20;5.63;;;7.00;68.00;;;;;;6231110;28;20239;-79
2024/01/27 11:14:03;;;;;;;13.83;5.30;;;7.00;67.80;;;;;;6229217;28;20357;-79
2024/01/27 11:17:06;;;;;;;20.70;6.50;;;6.80;68.20;;;;;;6237355;28;20719;-78
2024/01/27 11:20:11;;;;;;;19.83;5.40;;;6.70;68.40;;;;;;6233929;28;20227;-80
2024/01/27 11:23:17;;;;;;;14.50;6.20;;;6.70;68.60;;;;;;6236681;28;20268;-80
2024/01/27 11:26:22;;;;;;;13.50;6.33;;;6.90;68.70;;;;;;6234924;28;20261;-80
2024/01/27 11:29:26;;;;;;;15.43;5.83;;;7.00;67.80;;;;;;6234307;28;20245;-82
2024/01/27 11:32:29;;;;;;;13.13;5.53;;;6.90;67.50;;;;;;6232081;28;20235;-80
2024/01/27 11:35:34;;;;;;;18.13;5.90;;;6.90;67.40;;;;;;6211232;28;20269;-81
2024/01/27 11:38:39;;;;;;;18.00;5.73;;;7.00;67.40;;;;;;6213402;28;20306;-79
2024/01/27 11:41:43;;;;;;;22.00;6.57;;;6.90;67.40;;;;;;6222179;28;20828;-80
2024/01/27 11:44:46;;;;;;;12.87;5.53;;;6.90;67.80;;;;;;6218017;28;20317;-79
2024/01/27 11:47:50;;;;;;;18.70;6.70;;;7.00;68.00;;;;;;6211203;28;20235;-83
2024/01/27 11:51:04;;;;;;;15.07;5.57;;;6.90;68.20;;;;;;6231274;28;20235;-80
2024/01/27 11:54:09;;;;;;;22.90;7.93;;;6.90;68.20;;;;;;6227049;28;20258;-81
2024/01/27 11:57:12;;;;;;;18.57;7.57;;;6.90;68.70;;;;;;6222296;28;20231;-81
2024/01/27 12:00:15;;;;;;;22.37;7.33;;;6.80;68.70;;;;;;6220532;28;20231;-78
2024/01/27 12:03:19;;;;;;;15.23;6.53;;;6.80;68.80;;;;;;6215010;28;20289;-80
2024/01/27 12:06:23;;;;;;;16.40;6.37;;;6.80;68.60;;;;;;6215613;28;20250;-80
2024/01/27 12:09:28;;;;;;;18.67;6.03;;;6.80;68.40;;;;;;6213345;28;20236;-80
2024/01/27 12:12:32;;;;;;;18.13;6.27;;;6.70;68.30;;;;;;6212136;28;20235;-81
2024/01/27 12:15:35;;;;;;;13.60;6.60;;;6.70;68.40;;;;;;6225347;28;20234;-80
2024/01/27 12:18:39;;;;;;;16.03;6.07;;;6.70;68.40;;;;;;6219250;28;20234;-81
2024/01/27 12:21:48;;;;;;;18.13;6.53;;;6.80;68.30;;;;;;6232600;28;20733;-80
2024/01/27 12:24:53;;;;;;;12.03;6.47;;;6.80;68.40;;;;;;6234408;28;20616;-79
2024/01/27 12:28:00;;;;;;;21.10;7.00;;;6.70;68.80;;;;;;6235641;28;20268;-80
2024/01/27 12:31:05;;;;;;;17.93;7.20;;;6.80;68.40;;;;;;6209772;28;20246;-82
2024/01/27 12:34:09;;;;;;;24.07;7.07;;;6.60;68.40;;;;;;6231944;28;20251;-80
2024/01/27 12:37:13;;;;;;;18.47;8.17;;;6.50;68.80;;;;;;6224427;28;20235;-81
2024/01/27 12:40:22;;;;;;;15.23;6.50;;;6.50;68.70;;;;;;6230930;28;20769;-80
2024/01/27 12:43:26;;;;;;;21.50;6.53;;;6.50;68.60;;;;;;6226748;28;20704;-79
2024/01/27 12:46:30;;;;;;;18.13;6.90;;;6.50;68.40;;;;;;6225579;28;20345;-79
2024/01/27 12:49:33;;;;;;;18.03;7.13;;;6.60;68.20;;;;;;6233620;28;20269;-80
2024/01/27 12:52:37;;;;;;;21.03;6.93;;;6.60;67.80;;;;;;6229693;28;20230;-79
2024/01/27 12:55:42;;;;;;;12.57;6.40;;;6.70;67.70;;;;;;6231433;28;20238;-81
2024/01/27 12:58:45;;;;;;;13.97;6.83;;;6.70;67.50;;;;;;6234085;28;20231;-79
2024/01/27 13:01:50;;;;;;;13.10;6.10;;;6.80;67.10;;;;;;6217765;28;20299;-77
2024/01/27 13:04:59;;;;;;;17.27;6.40;;;6.80;66.80;;;;;;6193556;28;20508;-76
2024/01/27 13:08:04;;;;;;;12.77;6.10;;;6.60;67.10;;;;;;6215259;28;20313;-80
2024/01/27 13:11:08;;;;;;;12.07;5.70;;;6.70;66.80;;;;;;6222742;28;20591;-76
2024/01/27 13:14:12;;;;;;;16.27;5.70;;;6.70;67.00;;;;;;6228345;28;20238;-79
2024/01/27 13:17:16;;;;;;;15.10;6.47;;;6.50;67.60;;;;;;6227926;28;20269;-79
2024/01/27 13:20:19;;;;;;;14.87;7.77;;;6.50;67.60;;;;;;6212510;28;20235;-77
2024/01/27 13:23:23;;;;;;;17.93;6.97;;;6.60;67.80;;;;;;6213072;28;20274;-79
2024/01/27 13:26:28;;;;;;;15.13;6.00;;;6.60;67.70;;;;;;6242693;28;20246;-76
2024/01/27 13:29:32;;;;;;;14.93;6.23;;;6.50;68.00;;;;;;6236915;28;20226;-78
2024/01/27 13:32:35;;;;;;;14.83;6.33;;;6.40;68.20;;;;;;6231492;28;20242;-78
2024/01/27 13:35:42;;;;;;;10.13;6.40;;;6.40;68.60;;;;;;6236178;28;20247;-81
2024/01/27 13:38:45;;;;;;;17.60;6.40;;;6.50;68.40;;;;;;6234225;28;20254;-80
2024/01/27 13:41:50;;;;;;;12.60;6.03;;;6.60;68.30;;;;;;6235581;28;20246;-78
2024/01/27 13:44:54;;;;;;;14.90;6.73;;;6.70;68.50;;;;;;6220057;28;20318;-79
2024/01/27 13:47:58;;;;;;;12.07;6.57;;;6.80;68.40;;;;;;6231179;28;20965;-78
2024/01/27 13:51:01;;;;;;;13.80;6.20;;;6.90;68.40;;;;;;6238820;28;20234;-81
2024/01/27 13:54:04;;;;;;;16.57;6.43;;;7.00;67.90;;;;;;6235901;28;20242;-80
2024/01/27 13:57:10;;;;;;;12.07;6.80;;;7.00;68.00;;;;;;6234495;28;20284;-78
2024/01/27 14:00:17;;;;;;;18.97;6.63;;;7.00;67.80;;;;;;6232253;28;20638;-79
2024/01/27 14:03:20;;;;;;;20.93;6.40;;;7.20;67.30;;;;;;6238126;28;20238;-82
2024/01/27 14:06:23;;;;;;;16.00;7.23;;;7.00;67.50;;;;;;6210612;28;20253;-78
2024/01/27 14:09:27;;;;;;;15.27;7.10;;;7.00;67.80;;;;;;6235665;28;20239;-77
2024/01/27 14:12:32;;;;;;;11.73;6.30;;;7.00;67.80;;;;;;6239729;28;20234;-80
2024/01/27 14:15:36;;;;;;;20.40;7.27;;;7.00;68.00;;;;;;6232676;28;20238;-79
2024/01/27 14:18:42;;;;;;;15.40;6.93;;;7.00;68.20;;;;;;6232205;28;20654;-79
2024/01/27 14:21:45;;;;;;;13.40;6.47;;;7.00;68.20;;;;;;6236394;28;20295;-80
2024/01/27 14:24:48;;;;;;;16.20;6.97;;;6.90;68.50;;;;;;6237240;28;20330;-79
2024/01/27 14:27:53;;;;;;;17.07;6.60;;;7.00;68.50;;;;;;6235634;28;20338;-78
2024/01/27 14:30:56;;;;;;;10.60;5.53;;;6.90;68.70;;;;;;6237050;28;20378;-78
2024/01/27 14:34:02;;;;;;;13.03;6.03;;;6.90;68.70;;;;;;6237068;28;20284;-80
2024/01/27 14:37:06;;;;;;;10.80;6.07;;;7.00;68.70;;;;;;6233998;28;20245;-78
2024/01/27 14:40:13;;;;;;;16.07;7.83;;;7.00;68.80;;;;;;6235312;28;20774;-81
2024/01/27 14:43:18;;;;;;;15.17;5.90;;;7.00;68.60;;;;;;6236984;28;20242;-79
2024/01/27 14:46:23;;;;;;;11.47;6.67;;;7.00;68.40;;;;;;6220652;28;20559;-79
2024/01/27 14:49:27;;;;;;;15.93;6.43;;;7.00;68.30;;;;;;6219451;28;20237;-79
2024/01/27 14:52:31;;;;;;;17.40;6.77;;;6.80;68.70;;;;;;6235197;28;20231;-76
2024/01/27 14:55:34;;;;;;;12.83;6.10;;;6.80;68.60;;;;;;6235194;28;20250;-79
2024/01/27 14:58:40;;;;;;;11.53;6.00;;;6.80;68.80;;;;;;6223378;28;20246;-79
2024/01/27 15:01:43;;;;;;;15.07;6.10;;;6.80;68.90;;;;;;6239057;28;20292;-79
2024/01/27 15:04:46;;;;;;;12.43;5.60;;;6.70;68.90;;;;;;6234787;28;20231;-79
2024/01/27 15:07:49;;;;;;;15.97;6.73;;;6.70;68.70;;;;;;6229643;28;20250;-78
2024/01/27 15:10:52;;;;;;;12.70;5.97;;;6.70;68.70;;;;;;6235957;28;20245;-81
2024/01/27 15:13:57;;;;;;;22.80;6.47;;;6.60;68.90;;;;;;6235887;28;20329;-79
2024/01/27 15:17:00;;;;;;;16.73;6.27;;;6.60;68.90;;;;;;6235762;28;20745;-79
2024/01/27 15:20:04;;;;;;;14.70;6.23;;;6.60;68.90;;;;;;6236218;28;20226;-78
2024/01/27 15:23:08;;;;;;;17.23;6.20;;;6.50;69.00;;;;;;6237003;28;20312;-77
2024/01/27 15:26:11;;;;;;;11.20;5.70;;;6.50;69.10;;;;;;6233107;28;20858;-79
2024/01/27 15:29:16;;;;;;;13.83;4.67;;;6.50;69.30;;;;;;6231177;28;20235;-78
2024/01/27 15:32:22;;;;;;;11.33;5.50;;;6.50;69.30;;;;;;6233952;28;20722;-79
2024/01/27 15:35:29;;;;;;;16.87;5.73;;;6.50;69.10;;;;;;6231181;28;20330;-79
2024/01/27 15:38:33;;;;;;;10.80;5.20;;;6.40;69.30;;;;;;6245364;28;20227;-78
2024/01/27 15:41:36;;;;;;;21.43;6.10;;;6.40;69.50;;;;;;6234388;28;20671;-78
2024/01/27 15:44:44;;;;;;;10.80;5.27;;;6.30;69.70;;;;;;6238904;28;20235;-76
2024/01/27 15:47:47;;;;;;;12.53;4.97;;;6.30;70.00;;;;;;6238083;28;20247;-80
2024/01/27 15:50:51;;;;;;;14.27;5.63;;;6.20;70.00;;;;;;6237683;28;20250;-81
2024/01/27 15:53:54;;;;;;;12.27;5.97;;;6.30;70.00;;;;;;6235628;28;20697;-80
2024/01/27 15:56:57;;;;;;;19.07;5.67;;;6.30;69.80;;;;;;6232325;28;20223;-82
2024/01/27 16:00:01;;;;;;;15.00;5.07;;;6.30;69.70;;;;;;6232833;28;20230;-79